Aérodrome :







RETROUVEZ-NOUS SUR...

 
LOGIN :

S'inscrire | Disclaimer

   EN    FR    IT 

 









Légende :    VFR   VFR Marginal   IFR   IFR Intensif   IFR Très Intensif
Visi : 
Plafond : 
>= 8 km
>= 3000ft
5 à 8 km
1000 à 3000 ft
1500m à 5 km
500 à 1000 ft
800 à 1500m
200 à 500 ft
< 800m
< 200 ft
Symboles :   Orages  Brouillard  Fortes neiges  Fortes précipitations  Vent > 20 kt






- Altitude de l'aérodrome : 20 ft
- Code IATA : BOS


KBOS - General Edward Lawrence Logan International

DERNIER METAR :
  • 290854Z 09011KT 3SM -RA BR OVC004 06/05 A3016 RMK AO2 SLP213 P0003 60009 T00560050 53004

METARs EXPIRÉS :
  • 290826Z 08010KT 3SM -RA BR OVC004 06/05 A3016 RMK AO2 P0003 T00560050
  • 290754Z 08010KT 2 1/2SM RA BR OVC004 06/04 A3016 RMK AO2 SLP212 P0003 T00560044
  • 290725Z 08008KT 2 1/2SM -RA BR BKN004 BKN014 OVC027 06/05 A3016 RMK AO2 P0001 T00560050
  • 290707Z 09008KT 5SM -RA BR FEW005 OVC028 06/05 A3016 RMK AO2 P0000 T00560050
  • 290654Z 08007KT 4SM -RA BR OVC028 06/04 A3015 RMK AO2 SLP210 P0003 T00560044
  • 290637Z 10010KT 5SM -RA BR BKN028 OVC038 06/04 A3015 RMK AO2 P0001 T00560044

TAF KBOS
Valide du 29 à 06h jusqu'au 30 à 12h UTC


290534Z 2906/3012 11006KT 4SM -RA BR OVC015
FM291100 11010G17KT 5SM -RA BR OVC007
FM291800 10015G25KT 2SM -RA BR OVC007
FM300300 07012KT 1 1/2SM -DZ BR OVC006
FM300600 03010KT 3SM -DZ BR OVC005



MET'MAP, la Météo Aéronautique d'un coup d'oeil ! - Copyright ORBIFLY Décembre 2007 - Disclaimer

ORBIFLY MET'MAP TEAM :

Programmation & Développement : Alexandra Zaïnal
Sur une idée originale de : Baudouin d'Aumeries
Assistance à la programmation : Marc-Olivier Méhu
Soutien technique & logistique : Manuel Goepfert

Contact : metmap@orbifly.com




SOURCES & CREDITS :

   NOAA